sensor_id;sensor_type;location;lat;lon;timestamp;temperature;humidity
76878;DHT22;65843;50.692;12.844;2023-05-19T00:00:09;21.90;48.50
76878;DHT22;65843;50.692;12.844;2023-05-19T00:01:11;21.90;48.60
76878;DHT22;65843;50.692;12.844;2023-05-19T00:02:17;21.90;48.60
76878;DHT22;65843;50.692;12.844;2023-05-19T00:03:21;21.90;48.70
76878;DHT22;65843;50.692;12.844;2023-05-19T00:04:27;21.90;48.60
76878;DHT22;65843;50.692;12.844;2023-05-19T00:05:31;21.90;48.60
76878;DHT22;65843;50.692;12.844;2023-05-19T00:06:36;21.90;48.60
76878;DHT22;65843;50.692;12.844;2023-05-19T00:07:39;21.90;48.60
76878;DHT22;65843;50.692;12.844;2023-05-19T00:08:44;21.90;48.60
76878;DHT22;65843;50.692;12.844;2023-05-19T00:10:01;21.90;48.60
76878;DHT22;65843;50.692;12.844;2023-05-19T00:11:26;21.90;48.70
76878;DHT22;65843;50.692;12.844;2023-05-19T00:12:37;21.90;48.60
76878;DHT22;65843;50.692;12.844;2023-05-19T00:14:13;21.90;48.70
76878;DHT22;65843;50.692;12.844;2023-05-19T00:15:20;21.90;48.70
76878;DHT22;65843;50.692;12.844;2023-05-19T00:16:22;21.90;48.70
76878;DHT22;65843;50.692;12.844;2023-05-19T00:17:28;21.90;48.80
76878;DHT22;65843;50.692;12.844;2023-05-19T00:18:29;21.90;48.80
76878;DHT22;65843;50.692;12.844;2023-05-19T00:19:33;21.90;48.80
76878;DHT22;65843;50.692;12.844;2023-05-19T00:20:39;21.90;48.80
76878;DHT22;65843;50.692;12.844;2023-05-19T00:21:51;21.90;48.80
76878;DHT22;65843;50.692;12.844;2023-05-19T00:23:00;21.90;48.80
76878;DHT22;65843;50.692;12.844;2023-05-19T00:24:04;21.90;48.80
76878;DHT22;65843;50.692;12.844;2023-05-19T00:25:13;21.90;48.80
76878;DHT22;65843;50.692;12.844;2023-05-19T00:26:14;21.90;48.80
76878;DHT22;65843;50.692;12.844;2023-05-19T00:27:22;21.90;48.90
76878;DHT22;65843;50.692;12.844;2023-05-19T00:28:44;21.90;48.80
76878;DHT22;65843;50.692;12.844;2023-05-19T00:29:55;21.90;48.90
76878;DHT22;65843;50.692;12.844;2023-05-19T00:30:59;21.90;48.90
76878;DHT22;65843;50.692;12.844;2023-05-19T00:32:10;21.90;48.90
76878;DHT22;65843;50.692;12.844;2023-05-19T00:33:22;21.90;48.90
76878;DHT22;65843;50.692;12.844;2023-05-19T00:34:25;21.90;48.90
76878;DHT22;65843;50.692;12.844;2023-05-19T00:35:26;21.90;48.90
76878;DHT22;65843;50.692;12.844;2023-05-19T00:36:33;21.90;48.90
76878;DHT22;65843;50.692;12.844;2023-05-19T00:37:39;21.90;48.90
76878;DHT22;65843;50.692;12.844;2023-05-19T00:38:49;21.90;48.90
76878;DHT22;65843;50.692;12.844;2023-05-19T00:39:55;21.90;48.90
76878;DHT22;65843;50.692;12.844;2023-05-19T00:41:04;21.90;49.00
76878;DHT22;65843;50.692;12.844;2023-05-19T00:43:32;21.90;49.00
76878;DHT22;65843;50.692;12.844;2023-05-19T00:44:45;21.90;49.00
76878;DHT22;65843;50.692;12.844;2023-05-19T00:47:10;21.90;49.00
76878;DHT22;65843;50.692;12.844;2023-05-19T00:49:55;21.90;49.00
76878;DHT22;65843;50.692;12.844;2023-05-19T00:51:05;21.90;48.90
76878;DHT22;65843;50.692;12.844;2023-05-19T00:52:15;21.90;49.00
76878;DHT22;65843;50.692;12.844;2023-05-19T00:53:21;21.90;48.90
76878;DHT22;65843;50.692;12.844;2023-05-19T00:54:25;21.90;48.90
76878;DHT22;65843;50.692;12.844;2023-05-19T00:55:38;21.90;49.00
76878;DHT22;65843;50.692;12.844;2023-05-19T00:56:42;21.90;48.90
76878;DHT22;65843;50.692;12.844;2023-05-19T00:57:51;21.90;48.90
76878;DHT22;65843;50.692;12.844;2023-05-19T00:58:57;21.90;48.90
76878;DHT22;65843;50.692;12.844;2023-05-19T01:00:16;21.90;48.90
76878;DHT22;65843;50.692;12.844;2023-05-19T01:01:20;21.90;48.90
76878;DHT22;65843;50.692;12.844;2023-05-19T01:02:41;21.90;48.90
76878;DHT22;65843;50.692;12.844;2023-05-19T01:03:42;21.90;48.90
76878;DHT22;65843;50.692;12.844;2023-05-19T01:04:43;21.90;48.90
76878;DHT22;65843;50.692;12.844;2023-05-19T01:05:44;21.90;48.90
76878;DHT22;65843;50.692;12.844;2023-05-19T01:06:46;21.90;48.90
76878;DHT22;65843;50.692;12.844;2023-05-19T01:07:47;21.90;48.90
76878;DHT22;65843;50.692;12.844;2023-05-19T01:08:53;21.90;49.00
76878;DHT22;65843;50.692;12.844;2023-05-19T01:09:53;21.90;49.00
76878;DHT22;65843;50.692;12.844;2023-05-19T01:10:55;21.90;49.00
76878;DHT22;65843;50.692;12.844;2023-05-19T01:11:55;21.90;48.90
76878;DHT22;65843;50.692;12.844;2023-05-19T01:12:56;21.90;49.00
76878;DHT22;65843;50.692;12.844;2023-05-19T01:13:57;21.90;48.90
76878;DHT22;65843;50.692;12.844;2023-05-19T01:14:58;21.90;48.90
76878;DHT22;65843;50.692;12.844;2023-05-19T01:16:22;21.90;48.80
76878;DHT22;65843;50.692;12.844;2023-05-19T01:20:02;21.90;48.90
76878;DHT22;65843;50.692;12.844;2023-05-19T01:31:07;21.90;48.80
76878;DHT22;65843;50.692;12.844;2023-05-19T01:32:09;21.90;48.90
76878;DHT22;65843;50.692;12.844;2023-05-19T01:33:12;21.90;48.90
76878;DHT22;65843;50.692;12.844;2023-05-19T01:34:16;21.90;48.90
76878;DHT22;65843;50.692;12.844;2023-05-19T01:35:18;21.90;48.80
76878;DHT22;65843;50.692;12.844;2023-05-19T01:36:20;21.90;48.90
76878;DHT22;65843;50.692;12.844;2023-05-19T01:37:21;21.90;48.80
76878;DHT22;65843;50.692;12.844;2023-05-19T01:38:23;21.90;48.90
76878;DHT22;65843;50.692;12.844;2023-05-19T01:39:24;21.90;48.80
76878;DHT22;65843;50.692;12.844;2023-05-19T01:40:26;21.90;48.90
76878;DHT22;65843;50.692;12.844;2023-05-19T01:41:27;21.90;48.80
76878;DHT22;65843;50.692;12.844;2023-05-19T01:42:29;21.90;48.90
76878;DHT22;65843;50.692;12.844;2023-05-19T01:43:36;21.90;48.80
76878;DHT22;65843;50.692;12.844;2023-05-19T01:44:38;21.90;48.90
76878;DHT22;65843;50.692;12.844;2023-05-19T01:45:39;21.90;48.90
76878;DHT22;65843;50.692;12.844;2023-05-19T01:46:40;21.90;48.90
76878;DHT22;65843;50.692;12.844;2023-05-19T01:47:42;21.90;48.90
76878;DHT22;65843;50.692;12.844;2023-05-19T01:48:43;21.80;48.90
76878;DHT22;65843;50.692;12.844;2023-05-19T01:49:44;21.80;48.80
76878;DHT22;65843;50.692;12.844;2023-05-19T01:50:45;21.90;48.90
76878;DHT22;65843;50.692;12.844;2023-05-19T01:51:47;21.90;48.90
76878;DHT22;65843;50.692;12.844;2023-05-19T01:52:48;21.90;48.90
76878;DHT22;65843;50.692;12.844;2023-05-19T01:53:49;21.80;48.90
76878;DHT22;65843;50.692;12.844;2023-05-19T01:54:50;21.90;48.90
76878;DHT22;65843;50.692;12.844;2023-05-19T01:55:52;21.90;48.90
76878;DHT22;65843;50.692;12.844;2023-05-19T01:57:06;21.90;48.90
76878;DHT22;65843;50.692;12.844;2023-05-19T02:01:52;21.90;48.90
76878;DHT22;65843;50.692;12.844;2023-05-19T02:05:24;21.80;48.90
76878;DHT22;65843;50.692;12.844;2023-05-19T02:06:45;21.90;48.90
76878;DHT22;65843;50.692;12.844;2023-05-19T02:07:51;21.80;48.90
76878;DHT22;65843;50.692;12.844;2023-05-19T02:10:10;21.90;48.90
76878;DHT22;65843;50.692;12.844;2023-05-19T02:11:13;21.90;48.90
76878;DHT22;65843;50.692;12.844;2023-05-19T02:12:23;21.80;49.00
76878;DHT22;65843;50.692;12.844;2023-05-19T02:13:27;21.80;48.90
76878;DHT22;65843;50.692;12.844;2023-05-19T02:14:32;21.80;48.90
76878;DHT22;65843;50.692;12.844;2023-05-19T02:15:39;21.80;48.90
76878;DHT22;65843;50.692;12.844;2023-05-19T02:16:43;21.80;48.90
76878;DHT22;65843;50.692;12.844;2023-05-19T02:17:44;21.80;48.90
76878;DHT22;65843;50.692;12.844;2023-05-19T02:18:50;21.80;49.10
76878;DHT22;65843;50.692;12.844;2023-05-19T02:19:53;21.80;49.00
76878;DHT22;65843;50.692;12.844;2023-05-19T02:20:54;21.80;49.10
76878;DHT22;65843;50.692;12.844;2023-05-19T02:21:55;21.80;48.90
76878;DHT22;65843;50.692;12.844;2023-05-19T02:22:56;21.80;49.00
76878;DHT22;65843;50.692;12.844;2023-05-19T02:23:57;21.90;49.00
76878;DHT22;65843;50.692;12.844;2023-05-19T02:24:57;21.90;49.00
76878;DHT22;65843;50.692;12.844;2023-05-19T02:25:58;21.80;49.10
76878;DHT22;65843;50.692;12.844;2023-05-19T02:27:00;21.80;49.00
76878;DHT22;65843;50.692;12.844;2023-05-19T02:28:02;21.80;49.00
76878;DHT22;65843;50.692;12.844;2023-05-19T02:29:03;21.80;49.10
76878;DHT22;65843;50.692;12.844;2023-05-19T02:30:04;21.90;49.00
76878;DHT22;65843;50.692;12.844;2023-05-19T02:31:05;21.90;49.00
76878;DHT22;65843;50.692;12.844;2023-05-19T02:32:09;21.90;49.00
76878;DHT22;65843;50.692;12.844;2023-05-19T02:33:10;21.90;48.90
76878;DHT22;65843;50.692;12.844;2023-05-19T02:34:11;21.90;48.90
76878;DHT22;65843;50.692;12.844;2023-05-19T02:35:12;21.80;49.00
76878;DHT22;65843;50.692;12.844;2023-05-19T02:36:13;21.90;49.00
76878;DHT22;65843;50.692;12.844;2023-05-19T02:37:14;21.80;49.10
76878;DHT22;65843;50.692;12.844;2023-05-19T02:38:15;21.90;49.10
76878;DHT22;65843;50.692;12.844;2023-05-19T02:39:16;21.90;49.10
76878;DHT22;65843;50.692;12.844;2023-05-19T02:40:17;21.80;49.20
76878;DHT22;65843;50.692;12.844;2023-05-19T02:41:18;21.80;49.10
76878;DHT22;65843;50.692;12.844;2023-05-19T02:42:19;21.80;49.10
76878;DHT22;65843;50.692;12.844;2023-05-19T02:43:20;21.80;49.10
76878;DHT22;65843;50.692;12.844;2023-05-19T02:44:20;21.80;49.10
76878;DHT22;65843;50.692;12.844;2023-05-19T02:45:21;21.90;49.10
76878;DHT22;65843;50.692;12.844;2023-05-19T02:46:22;21.80;49.00
76878;DHT22;65843;50.692;12.844;2023-05-19T02:47:23;21.90;49.00
76878;DHT22;65843;50.692;12.844;2023-05-19T02:48:24;21.80;49.00
76878;DHT22;65843;50.692;12.844;2023-05-19T02:49:25;21.90;49.00
76878;DHT22;65843;50.692;12.844;2023-05-19T02:50:26;21.90;49.10
76878;DHT22;65843;50.692;12.844;2023-05-19T02:51:27;21.90;49.20
76878;DHT22;65843;50.692;12.844;2023-05-19T02:52:28;21.90;49.30
76878;DHT22;65843;50.692;12.844;2023-05-19T02:53:30;21.90;49.20
76878;DHT22;65843;50.692;12.844;2023-05-19T02:54:32;21.90;49.20
76878;DHT22;65843;50.692;12.844;2023-05-19T02:55:33;21.90;49.30
76878;DHT22;65843;50.692;12.844;2023-05-19T02:56:34;21.90;49.20
76878;DHT22;65843;50.692;12.844;2023-05-19T02:57:35;21.90;49.20
76878;DHT22;65843;50.692;12.844;2023-05-19T02:58:35;21.90;49.30
76878;DHT22;65843;50.692;12.844;2023-05-19T02:59:36;21.90;49.20
76878;DHT22;65843;50.692;12.844;2023-05-19T03:00:37;21.90;49.20
76878;DHT22;65843;50.692;12.844;2023-05-19T03:01:38;21.90;49.20
76878;DHT22;65843;50.692;12.844;2023-05-19T03:02:40;21.90;49.20
76878;DHT22;65843;50.692;12.844;2023-05-19T03:03:40;21.90;49.20
76878;DHT22;65843;50.692;12.844;2023-05-19T03:04:41;21.90;49.20
76878;DHT22;65843;50.692;12.844;2023-05-19T03:05:42;21.90;49.10
76878;DHT22;65843;50.692;12.844;2023-05-19T03:06:43;21.90;49.20
76878;DHT22;65843;50.692;12.844;2023-05-19T03:07:44;21.90;49.20
76878;DHT22;65843;50.692;12.844;2023-05-19T03:08:46;21.90;49.10
76878;DHT22;65843;50.692;12.844;2023-05-19T03:09:47;21.90;49.10
76878;DHT22;65843;50.692;12.844;2023-05-19T03:10:47;21.90;49.10
76878;DHT22;65843;50.692;12.844;2023-05-19T03:11:48;21.90;49.10
76878;DHT22;65843;50.692;12.844;2023-05-19T03:12:49;21.90;49.10
76878;DHT22;65843;50.692;12.844;2023-05-19T03:13:50;21.90;49.00
76878;DHT22;65843;50.692;12.844;2023-05-19T03:14:51;21.90;49.00
76878;DHT22;65843;50.692;12.844;2023-05-19T03:15:52;21.90;49.10
76878;DHT22;65843;50.692;12.844;2023-05-19T03:16:52;21.90;49.00
76878;DHT22;65843;50.692;12.844;2023-05-19T03:17:55;21.90;49.00
76878;DHT22;65843;50.692;12.844;2023-05-19T03:18:56;21.90;49.00
76878;DHT22;65843;50.692;12.844;2023-05-19T03:19:57;21.90;49.00
76878;DHT22;65843;50.692;12.844;2023-05-19T03:20:58;21.90;49.10
76878;DHT22;65843;50.692;12.844;2023-05-19T03:21:59;21.80;49.00
76878;DHT22;65843;50.692;12.844;2023-05-19T03:23:00;21.80;49.00
76878;DHT22;65843;50.692;12.844;2023-05-19T03:24:01;21.80;48.90
76878;DHT22;65843;50.692;12.844;2023-05-19T03:25:02;21.80;48.90
76878;DHT22;65843;50.692;12.844;2023-05-19T03:26:03;21.80;49.00
76878;DHT22;65843;50.692;12.844;2023-05-19T03:27:04;21.80;48.90
76878;DHT22;65843;50.692;12.844;2023-05-19T03:28:05;21.80;48.90
76878;DHT22;65843;50.692;12.844;2023-05-19T03:29:06;21.70;48.90
76878;DHT22;65843;50.692;12.844;2023-05-19T03:30:08;21.70;48.90
76878;DHT22;65843;50.692;12.844;2023-05-19T03:31:09;21.70;48.90
76878;DHT22;65843;50.692;12.844;2023-05-19T03:32:10;21.70;48.90
76878;DHT22;65843;50.692;12.844;2023-05-19T03:33:10;21.70;48.80
76878;DHT22;65843;50.692;12.844;2023-05-19T03:34:11;21.70;48.90
76878;DHT22;65843;50.692;12.844;2023-05-19T03:35:12;21.70;48.80
76878;DHT22;65843;50.692;12.844;2023-05-19T03:36:13;21.70;48.80
76878;DHT22;65843;50.692;12.844;2023-05-19T03:37:14;21.70;48.80
76878;DHT22;65843;50.692;12.844;2023-05-19T03:38:15;21.70;48.80
76878;DHT22;65843;50.692;12.844;2023-05-19T03:39:16;21.70;48.80
76878;DHT22;65843;50.692;12.844;2023-05-19T03:40:17;21.70;48.80
76878;DHT22;65843;50.692;12.844;2023-05-19T03:41:18;21.70;48.70
76878;DHT22;65843;50.692;12.844;2023-05-19T03:42:19;21.70;48.70
76878;DHT22;65843;50.692;12.844;2023-05-19T03:43:20;21.70;48.70
76878;DHT22;65843;50.692;12.844;2023-05-19T03:44:21;21.70;48.70
76878;DHT22;65843;50.692;12.844;2023-05-19T03:45:21;21.70;48.70
76878;DHT22;65843;50.692;12.844;2023-05-19T03:46:22;21.70;48.60
76878;DHT22;65843;50.692;12.844;2023-05-19T03:47:23;21.70;48.70
76878;DHT22;65843;50.692;12.844;2023-05-19T03:48:24;21.70;48.70
76878;DHT22;65843;50.692;12.844;2023-05-19T03:49:26;21.70;48.60
76878;DHT22;65843;50.692;12.844;2023-05-19T03:50:27;21.70;48.70
76878;DHT22;65843;50.692;12.844;2023-05-19T03:51:28;21.70;48.60
76878;DHT22;65843;50.692;12.844;2023-05-19T03:52:29;21.70;48.60
76878;DHT22;65843;50.692;12.844;2023-05-19T03:53:30;21.70;48.60
76878;DHT22;65843;50.692;12.844;2023-05-19T03:54:31;21.70;48.60
76878;DHT22;65843;50.692;12.844;2023-05-19T03:55:32;21.70;48.60
76878;DHT22;65843;50.692;12.844;2023-05-19T03:56:33;21.70;48.50
76878;DHT22;65843;50.692;12.844;2023-05-19T03:57:34;21.60;48.50
76878;DHT22;65843;50.692;12.844;2023-05-19T03:58:35;21.60;48.60
76878;DHT22;65843;50.692;12.844;2023-05-19T03:59:38;21.60;48.50
76878;DHT22;65843;50.692;12.844;2023-05-19T04:00:41;21.60;48.50
76878;DHT22;65843;50.692;12.844;2023-05-19T04:01:42;21.60;48.50
76878;DHT22;65843;50.692;12.844;2023-05-19T04:02:42;21.60;48.60
76878;DHT22;65843;50.692;12.844;2023-05-19T04:03:43;21.60;48.50
76878;DHT22;65843;50.692;12.844;2023-05-19T04:04:44;21.60;48.60
76878;DHT22;65843;50.692;12.844;2023-05-19T04:05:45;21.60;48.50
76878;DHT22;65843;50.692;12.844;2023-05-19T04:06:46;21.50;48.50
76878;DHT22;65843;50.692;12.844;2023-05-19T04:07:48;21.60;48.50
76878;DHT22;65843;50.692;12.844;2023-05-19T04:08:49;21.60;48.50
76878;DHT22;65843;50.692;12.844;2023-05-19T04:09:50;21.60;48.50
76878;DHT22;65843;50.692;12.844;2023-05-19T04:10:51;21.60;48.50
76878;DHT22;65843;50.692;12.844;2023-05-19T04:11:52;21.60;48.50
76878;DHT22;65843;50.692;12.844;2023-05-19T04:12:53;21.50;48.50
76878;DHT22;65843;50.692;12.844;2023-05-19T04:13:54;21.50;48.40
76878;DHT22;65843;50.692;12.844;2023-05-19T04:14:55;21.50;48.30
76878;DHT22;65843;50.692;12.844;2023-05-19T04:15:56;21.50;48.30
76878;DHT22;65843;50.692;12.844;2023-05-19T04:16:57;21.50;48.30
76878;DHT22;65843;50.692;12.844;2023-05-19T04:17:57;21.50;48.20
76878;DHT22;65843;50.692;12.844;2023-05-19T04:18:58;21.50;48.20
76878;DHT22;65843;50.692;12.844;2023-05-19T04:19:59;21.50;48.20
76878;DHT22;65843;50.692;12.844;2023-05-19T04:21:00;21.50;48.20
76878;DHT22;65843;50.692;12.844;2023-05-19T04:22:01;21.50;48.20
76878;DHT22;65843;50.692;12.844;2023-05-19T04:23:02;21.50;48.20
76878;DHT22;65843;50.692;12.844;2023-05-19T04:24:03;21.50;48.20
76878;DHT22;65843;50.692;12.844;2023-05-19T04:25:06;21.50;48.20
76878;DHT22;65843;50.692;12.844;2023-05-19T04:26:07;21.50;48.10
76878;DHT22;65843;50.692;12.844;2023-05-19T04:27:07;21.50;48.10
76878;DHT22;65843;50.692;12.844;2023-05-19T04:28:11;21.50;48.10
76878;DHT22;65843;50.692;12.844;2023-05-19T04:29:12;21.50;48.00
76878;DHT22;65843;50.692;12.844;2023-05-19T04:30:17;21.50;48.00
76878;DHT22;65843;50.692;12.844;2023-05-19T04:31:21;21.50;48.00
76878;DHT22;65843;50.692;12.844;2023-05-19T04:32:22;21.50;48.00
76878;DHT22;65843;50.692;12.844;2023-05-19T04:33:23;21.50;48.00
76878;DHT22;65843;50.692;12.844;2023-05-19T04:34:24;21.50;48.00
76878;DHT22;65843;50.692;12.844;2023-05-19T04:35:25;21.50;48.00
76878;DHT22;65843;50.692;12.844;2023-05-19T04:36:26;21.50;48.00
76878;DHT22;65843;50.692;12.844;2023-05-19T04:37:27;21.50;48.00
76878;DHT22;65843;50.692;12.844;2023-05-19T04:38:29;21.50;48.00
76878;DHT22;65843;50.692;12.844;2023-05-19T04:39:30;21.50;48.00
76878;DHT22;65843;50.692;12.844;2023-05-19T04:40:31;21.50;47.90
76878;DHT22;65843;50.692;12.844;2023-05-19T04:41:32;21.50;48.00
76878;DHT22;65843;50.692;12.844;2023-05-19T04:42:34;21.50;48.00
76878;DHT22;65843;50.692;12.844;2023-05-19T04:43:35;21.50;47.90
76878;DHT22;65843;50.692;12.844;2023-05-19T04:44:36;21.50;47.90
76878;DHT22;65843;50.692;12.844;2023-05-19T04:45:39;21.50;47.90
76878;DHT22;65843;50.692;12.844;2023-05-19T04:46:42;21.50;47.90
76878;DHT22;65843;50.692;12.844;2023-05-19T04:47:44;21.50;47.80
76878;DHT22;65843;50.692;12.844;2023-05-19T04:48:47;21.50;47.90
76878;DHT22;65843;50.692;12.844;2023-05-19T04:49:49;21.50;47.90
76878;DHT22;65843;50.692;12.844;2023-05-19T04:50:54;21.40;47.80
76878;DHT22;65843;50.692;12.844;2023-05-19T04:51:55;21.50;47.80
76878;DHT22;65843;50.692;12.844;2023-05-19T04:52:56;21.50;47.70
76878;DHT22;65843;50.692;12.844;2023-05-19T04:53:58;21.40;47.70
76878;DHT22;65843;50.692;12.844;2023-05-19T04:54:59;21.40;47.70
76878;DHT22;65843;50.692;12.844;2023-05-19T04:56:00;21.50;47.80
76878;DHT22;65843;50.692;12.844;2023-05-19T04:57:01;21.40;47.70
76878;DHT22;65843;50.692;12.844;2023-05-19T04:58:02;21.40;47.70
76878;DHT22;65843;50.692;12.844;2023-05-19T04:59:03;21.50;47.70
76878;DHT22;65843;50.692;12.844;2023-05-19T05:00:04;21.40;47.70
76878;DHT22;65843;50.692;12.844;2023-05-19T05:01:07;21.40;47.80
76878;DHT22;65843;50.692;12.844;2023-05-19T05:02:09;21.50;47.80
76878;DHT22;65843;50.692;12.844;2023-05-19T05:03:10;21.50;47.90
76878;DHT22;65843;50.692;12.844;2023-05-19T05:04:13;21.50;47.90
76878;DHT22;65843;50.692;12.844;2023-05-19T05:05:14;21.50;47.90
76878;DHT22;65843;50.692;12.844;2023-05-19T05:06:15;21.50;47.90
76878;DHT22;65843;50.692;12.844;2023-05-19T05:07:17;21.50;47.90
76878;DHT22;65843;50.692;12.844;2023-05-19T05:08:18;21.60;47.90
76878;DHT22;65843;50.692;12.844;2023-05-19T05:09:22;21.60;47.90
76878;DHT22;65843;50.692;12.844;2023-05-19T05:10:24;21.60;47.90
76878;DHT22;65843;50.692;12.844;2023-05-19T05:11:25;21.60;47.80
76878;DHT22;65843;50.692;12.844;2023-05-19T05:12:26;21.70;47.80
76878;DHT22;65843;50.692;12.844;2023-05-19T05:13:27;21.70;47.80
76878;DHT22;65843;50.692;12.844;2023-05-19T05:14:28;21.70;47.80
76878;DHT22;65843;50.692;12.844;2023-05-19T05:15:30;21.70;47.90
76878;DHT22;65843;50.692;12.844;2023-05-19T05:16:32;21.70;47.80
76878;DHT22;65843;50.692;12.844;2023-05-19T05:17:33;21.70;47.90
76878;DHT22;65843;50.692;12.844;2023-05-19T05:18:35;21.70;47.80
76878;DHT22;65843;50.692;12.844;2023-05-19T05:19:38;21.70;47.90
76878;DHT22;65843;50.692;12.844;2023-05-19T05:20:42;21.70;47.80
76878;DHT22;65843;50.692;12.844;2023-05-19T05:21:43;21.80;47.80
76878;DHT22;65843;50.692;12.844;2023-05-19T05:22:45;21.80;47.80
76878;DHT22;65843;50.692;12.844;2023-05-19T05:23:49;21.90;47.80
76878;DHT22;65843;50.692;12.844;2023-05-19T05:24:49;21.90;47.80
76878;DHT22;65843;50.692;12.844;2023-05-19T05:25:50;21.90;47.80
76878;DHT22;65843;50.692;12.844;2023-05-19T05:26:52;21.90;47.80
76878;DHT22;65843;50.692;12.844;2023-05-19T05:27:53;21.90;47.80
76878;DHT22;65843;50.692;12.844;2023-05-19T05:28:54;21.90;47.70
76878;DHT22;65843;50.692;12.844;2023-05-19T05:29:55;21.90;47.80
76878;DHT22;65843;50.692;12.844;2023-05-19T05:30:56;21.90;47.80
76878;DHT22;65843;50.692;12.844;2023-05-19T05:32:00;21.90;47.70
76878;DHT22;65843;50.692;12.844;2023-05-19T05:33:01;21.90;47.80
76878;DHT22;65843;50.692;12.844;2023-05-19T05:34:02;21.90;47.80
76878;DHT22;65843;50.692;12.844;2023-05-19T05:35:03;21.90;47.80
76878;DHT22;65843;50.692;12.844;2023-05-19T05:36:04;21.90;47.80
76878;DHT22;65843;50.692;12.844;2023-05-19T05:37:05;21.90;47.70
76878;DHT22;65843;50.692;12.844;2023-05-19T05:38:06;22.00;47.70
76878;DHT22;65843;50.692;12.844;2023-05-19T05:39:07;21.90;47.80
76878;DHT22;65843;50.692;12.844;2023-05-19T05:40:08;22.00;47.70
76878;DHT22;65843;50.692;12.844;2023-05-19T05:41:09;22.00;47.70
76878;DHT22;65843;50.692;12.844;2023-05-19T05:42:10;22.00;47.80
76878;DHT22;65843;50.692;12.844;2023-05-19T05:43:11;22.00;47.70
76878;DHT22;65843;50.692;12.844;2023-05-19T05:44:12;22.00;47.70
76878;DHT22;65843;50.692;12.844;2023-05-19T05:45:13;22.00;47.70
76878;DHT22;65843;50.692;12.844;2023-05-19T05:46:14;21.90;47.70
76878;DHT22;65843;50.692;12.844;2023-05-19T05:47:15;22.00;47.70
76878;DHT22;65843;50.692;12.844;2023-05-19T05:48:16;22.00;47.70
76878;DHT22;65843;50.692;12.844;2023-05-19T05:49:17;22.00;47.70
76878;DHT22;65843;50.692;12.844;2023-05-19T05:50:18;22.00;47.70
76878;DHT22;65843;50.692;12.844;2023-05-19T05:51:20;22.00;47.70
76878;DHT22;65843;50.692;12.844;2023-05-19T05:52:21;22.00;47.70
76878;DHT22;65843;50.692;12.844;2023-05-19T05:53:24;22.00;47.70
76878;DHT22;65843;50.692;12.844;2023-05-19T05:54:26;22.00;47.70
76878;DHT22;65843;50.692;12.844;2023-05-19T05:55:27;22.00;47.70
76878;DHT22;65843;50.692;12.844;2023-05-19T05:56:28;22.00;47.70
76878;DHT22;65843;50.692;12.844;2023-05-19T05:57:29;22.00;47.70
76878;DHT22;65843;50.692;12.844;2023-05-19T05:58:30;22.00;47.70
76878;DHT22;65843;50.692;12.844;2023-05-19T05:59:32;22.00;47.80
76878;DHT22;65843;50.692;12.844;2023-05-19T06:00:33;22.00;47.70
76878;DHT22;65843;50.692;12.844;2023-05-19T06:01:34;22.00;47.70
76878;DHT22;65843;50.692;12.844;2023-05-19T06:02:36;22.00;47.70
76878;DHT22;65843;50.692;12.844;2023-05-19T06:03:40;22.10;47.70
76878;DHT22;65843;50.692;12.844;2023-05-19T06:04:42;22.10;47.60
76878;DHT22;65843;50.692;12.844;2023-05-19T06:05:43;22.00;47.60
76878;DHT22;65843;50.692;12.844;2023-05-19T06:06:44;22.10;47.60
76878;DHT22;65843;50.692;12.844;2023-05-19T06:07:45;22.00;47.60
76878;DHT22;65843;50.692;12.844;2023-05-19T06:08:46;22.00;47.70
76878;DHT22;65843;50.692;12.844;2023-05-19T06:09:47;22.00;47.50
76878;DHT22;65843;50.692;12.844;2023-05-19T06:10:48;22.00;47.50
76878;DHT22;65843;50.692;12.844;2023-05-19T06:11:48;22.00;47.50
76878;DHT22;65843;50.692;12.844;2023-05-19T06:12:49;21.90;47.60
76878;DHT22;65843;50.692;12.844;2023-05-19T06:13:50;21.90;47.60
76878;DHT22;65843;50.692;12.844;2023-05-19T06:14:51;21.90;47.60
76878;DHT22;65843;50.692;12.844;2023-05-19T06:15:52;21.90;47.60
76878;DHT22;65843;50.692;12.844;2023-05-19T06:16:53;21.90;47.60
76878;DHT22;65843;50.692;12.844;2023-05-19T06:17:54;21.90;47.60
76878;DHT22;65843;50.692;12.844;2023-05-19T06:18:55;21.90;47.50
76878;DHT22;65843;50.692;12.844;2023-05-19T06:19:56;21.90;47.50
76878;DHT22;65843;50.692;12.844;2023-05-19T06:20:57;21.90;47.50
76878;DHT22;65843;50.692;12.844;2023-05-19T06:21:58;21.90;47.50
76878;DHT22;65843;50.692;12.844;2023-05-19T06:22:59;21.90;47.60
76878;DHT22;65843;50.692;12.844;2023-05-19T06:24:00;21.90;47.50
76878;DHT22;65843;50.692;12.844;2023-05-19T06:25:01;21.90;47.50
76878;DHT22;65843;50.692;12.844;2023-05-19T06:26:02;21.90;47.50
76878;DHT22;65843;50.692;12.844;2023-05-19T06:27:03;21.90;47.50
76878;DHT22;65843;50.692;12.844;2023-05-19T06:28:04;21.90;47.50
76878;DHT22;65843;50.692;12.844;2023-05-19T06:29:05;21.90;47.50
76878;DHT22;65843;50.692;12.844;2023-05-19T06:30:06;21.90;47.50
76878;DHT22;65843;50.692;12.844;2023-05-19T06:31:08;21.90;47.50
76878;DHT22;65843;50.692;12.844;2023-05-19T06:32:09;21.90;47.50
76878;DHT22;65843;50.692;12.844;2023-05-19T06:33:10;21.90;47.50
76878;DHT22;65843;50.692;12.844;2023-05-19T06:34:10;21.90;47.50
76878;DHT22;65843;50.692;12.844;2023-05-19T06:35:14;21.90;47.50
76878;DHT22;65843;50.692;12.844;2023-05-19T06:36:15;21.90;47.50
76878;DHT22;65843;50.692;12.844;2023-05-19T06:37:16;21.90;47.50
76878;DHT22;65843;50.692;12.844;2023-05-19T06:38:19;21.90;47.40
76878;DHT22;65843;50.692;12.844;2023-05-19T06:39:20;22.00;47.40
76878;DHT22;65843;50.692;12.844;2023-05-19T06:40:21;22.00;47.40
76878;DHT22;65843;50.692;12.844;2023-05-19T06:41:22;22.00;47.40
76878;DHT22;65843;50.692;12.844;2023-05-19T06:42:23;22.00;47.50
76878;DHT22;65843;50.692;12.844;2023-05-19T06:43:24;22.00;47.40
76878;DHT22;65843;50.692;12.844;2023-05-19T06:44:25;22.00;47.40
76878;DHT22;65843;50.692;12.844;2023-05-19T06:45:26;22.00;47.40
76878;DHT22;65843;50.692;12.844;2023-05-19T06:46:27;22.00;47.40
76878;DHT22;65843;50.692;12.844;2023-05-19T06:47:28;22.00;47.40
76878;DHT22;65843;50.692;12.844;2023-05-19T06:48:29;22.00;47.40
76878;DHT22;65843;50.692;12.844;2023-05-19T06:49:30;22.00;47.50
76878;DHT22;65843;50.692;12.844;2023-05-19T06:50:31;22.00;47.40
76878;DHT22;65843;50.692;12.844;2023-05-19T06:51:32;22.00;47.40
76878;DHT22;65843;50.692;12.844;2023-05-19T06:52:33;22.00;47.40